sensor_id;sensor_type;location;lat;lon;timestamp;P1;durP1;ratioP1;P2;durP2;ratioP2
76447;SDS011;65284;51.040;13.722;2023-11-18T00:01:57;6.22;;;3.15;;
76447;SDS011;65284;51.040;13.722;2023-11-18T00:04:24;5.63;;;3.13;;
76447;SDS011;65284;51.040;13.722;2023-11-18T00:06:51;6.43;;;2.80;;
76447;SDS011;65284;51.040;13.722;2023-11-18T00:09:18;5.30;;;2.80;;
76447;SDS011;65284;51.040;13.722;2023-11-18T00:11:46;5.85;;;2.80;;
76447;SDS011;65284;51.040;13.722;2023-11-18T00:14:12;6.00;;;2.60;;
76447;SDS011;65284;51.040;13.722;2023-11-18T00:16:39;5.68;;;2.90;;
76447;SDS011;65284;51.040;13.722;2023-11-18T00:19:06;6.85;;;3.10;;
76447;SDS011;65284;51.040;13.722;2023-11-18T00:21:32;5.80;;;2.67;;
76447;SDS011;65284;51.040;13.722;2023-11-18T00:23:59;6.15;;;2.50;;
76447;SDS011;65284;51.040;13.722;2023-11-18T00:26:25;5.00;;;2.30;;
76447;SDS011;65284;51.040;13.722;2023-11-18T00:28:52;5.50;;;2.47;;
76447;SDS011;65284;51.040;13.722;2023-11-18T00:31:18;6.22;;;2.28;;
76447;SDS011;65284;51.040;13.722;2023-11-18T00:33:45;5.45;;;2.50;;
76447;SDS011;65284;51.040;13.722;2023-11-18T00:36:12;4.63;;;2.08;;
76447;SDS011;65284;51.040;13.722;2023-11-18T00:38:38;4.47;;;2.20;;
76447;SDS011;65284;51.040;13.722;2023-11-18T00:41:06;4.85;;;2.10;;
76447;SDS011;65284;51.040;13.722;2023-11-18T00:43:33;4.95;;;2.55;;
76447;SDS011;65284;51.040;13.722;2023-11-18T00:45:59;5.88;;;2.80;;
76447;SDS011;65284;51.040;13.722;2023-11-18T00:48:25;6.20;;;2.70;;
76447;SDS011;65284;51.040;13.722;2023-11-18T00:50:52;6.72;;;3.03;;
76447;SDS011;65284;51.040;13.722;2023-11-18T00:53:18;7.55;;;3.60;;
76447;SDS011;65284;51.040;13.722;2023-11-18T00:55:45;7.55;;;3.33;;
76447;SDS011;65284;51.040;13.722;2023-11-18T00:58:11;7.65;;;3.85;;
76447;SDS011;65284;51.040;13.722;2023-11-18T01:00:38;7.05;;;3.80;;
76447;SDS011;65284;51.040;13.722;2023-11-18T01:03:05;6.88;;;3.40;;
76447;SDS011;65284;51.040;13.722;2023-11-18T01:05:31;6.53;;;3.53;;
76447;SDS011;65284;51.040;13.722;2023-11-18T01:07:58;7.40;;;3.60;;
76447;SDS011;65284;51.040;13.722;2023-11-18T01:10:24;7.30;;;3.75;;
76447;SDS011;65284;51.040;13.722;2023-11-18T01:12:51;7.72;;;3.45;;
76447;SDS011;65284;51.040;13.722;2023-11-18T01:15:17;6.32;;;3.42;;
76447;SDS011;65284;51.040;13.722;2023-11-18T01:17:44;6.68;;;3.20;;
76447;SDS011;65284;51.040;13.722;2023-11-18T01:20:10;6.22;;;2.88;;
76447;SDS011;65284;51.040;13.722;2023-11-18T01:22:39;7.35;;;3.03;;
76447;SDS011;65284;51.040;13.722;2023-11-18T01:25:08;6.57;;;3.15;;
76447;SDS011;65284;51.040;13.722;2023-11-18T01:27:35;5.38;;;2.63;;
76447;SDS011;65284;51.040;13.722;2023-11-18T01:30:01;5.53;;;2.63;;
76447;SDS011;65284;51.040;13.722;2023-11-18T01:32:27;5.97;;;2.53;;
76447;SDS011;65284;51.040;13.722;2023-11-18T01:34:56;5.90;;;2.55;;
76447;SDS011;65284;51.040;13.722;2023-11-18T01:37:23;5.03;;;2.55;;
76447;SDS011;65284;51.040;13.722;2023-11-18T01:39:50;5.85;;;2.60;;
76447;SDS011;65284;51.040;13.722;2023-11-18T01:42:17;7.05;;;2.42;;
76447;SDS011;65284;51.040;13.722;2023-11-18T01:44:43;5.28;;;2.53;;
76447;SDS011;65284;51.040;13.722;2023-11-18T01:47:10;5.68;;;2.63;;
76447;SDS011;65284;51.040;13.722;2023-11-18T01:49:39;5.53;;;2.45;;
76447;SDS011;65284;51.040;13.722;2023-11-18T01:52:07;5.75;;;2.47;;
76447;SDS011;65284;51.040;13.722;2023-11-18T01:54:35;5.00;;;2.35;;
76447;SDS011;65284;51.040;13.722;2023-11-18T01:57:04;5.57;;;2.42;;
76447;SDS011;65284;51.040;13.722;2023-11-18T01:59:32;4.95;;;2.20;;
76447;SDS011;65284;51.040;13.722;2023-11-18T02:02:00;4.75;;;2.22;;
76447;SDS011;65284;51.040;13.722;2023-11-18T02:04:28;6.20;;;2.50;;
76447;SDS011;65284;51.040;13.722;2023-11-18T02:06:56;5.75;;;2.58;;
76447;SDS011;65284;51.040;13.722;2023-11-18T02:09:24;5.10;;;2.40;;
76447;SDS011;65284;51.040;13.722;2023-11-18T02:14:36;5.90;;;2.85;;
76447;SDS011;65284;51.040;13.722;2023-11-18T02:17:06;5.93;;;2.45;;
76447;SDS011;65284;51.040;13.722;2023-11-18T02:19:35;7.28;;;2.63;;
76447;SDS011;65284;51.040;13.722;2023-11-18T02:22:05;5.45;;;2.33;;
76447;SDS011;65284;51.040;13.722;2023-11-18T02:24:33;5.70;;;2.42;;
76447;SDS011;65284;51.040;13.722;2023-11-18T02:27:04;5.82;;;2.85;;
76447;SDS011;65284;51.040;13.722;2023-11-18T02:29:39;6.63;;;2.60;;
76447;SDS011;65284;51.040;13.722;2023-11-18T02:35:09;6.57;;;2.53;;
76447;SDS011;65284;51.040;13.722;2023-11-18T02:37:44;7.82;;;3.65;;
76447;SDS011;65284;51.040;13.722;2023-11-18T02:40:15;5.63;;;2.30;;
76447;SDS011;65284;51.040;13.722;2023-11-18T02:42:45;6.28;;;2.78;;
76447;SDS011;65284;51.040;13.722;2023-11-18T02:45:14;7.65;;;2.72;;
76447;SDS011;65284;51.040;13.722;2023-11-18T02:47:44;6.22;;;2.63;;
76447;SDS011;65284;51.040;13.722;2023-11-18T02:50:11;5.85;;;2.75;;
76447;SDS011;65284;51.040;13.722;2023-11-18T02:52:38;7.18;;;2.78;;
76447;SDS011;65284;51.040;13.722;2023-11-18T02:55:05;7.50;;;2.60;;
76447;SDS011;65284;51.040;13.722;2023-11-18T02:57:35;6.78;;;2.83;;
76447;SDS011;65284;51.040;13.722;2023-11-18T03:00:06;5.60;;;2.45;;
76447;SDS011;65284;51.040;13.722;2023-11-18T03:02:44;5.97;;;2.58;;
76447;SDS011;65284;51.040;13.722;2023-11-18T03:05:12;6.10;;;2.70;;
76447;SDS011;65284;51.040;13.722;2023-11-18T03:07:39;5.82;;;2.80;;
76447;SDS011;65284;51.040;13.722;2023-11-18T03:10:07;5.55;;;2.60;;
76447;SDS011;65284;51.040;13.722;2023-11-18T03:12:47;5.43;;;2.47;;
76447;SDS011;65284;51.040;13.722;2023-11-18T03:15:17;6.05;;;3.00;;
76447;SDS011;65284;51.040;13.722;2023-11-18T03:17:47;7.20;;;2.40;;
76447;SDS011;65284;51.040;13.722;2023-11-18T03:20:15;6.80;;;2.72;;
76447;SDS011;65284;51.040;13.722;2023-11-18T03:22:43;6.03;;;2.60;;
76447;SDS011;65284;51.040;13.722;2023-11-18T03:25:14;5.68;;;2.25;;
76447;SDS011;65284;51.040;13.722;2023-11-18T03:27:41;6.50;;;2.60;;
76447;SDS011;65284;51.040;13.722;2023-11-18T03:30:07;6.75;;;3.10;;
76447;SDS011;65284;51.040;13.722;2023-11-18T03:32:35;6.63;;;3.15;;
76447;SDS011;65284;51.040;13.722;2023-11-18T03:35:03;7.13;;;3.08;;
76447;SDS011;65284;51.040;13.722;2023-11-18T03:37:35;6.53;;;2.80;;
76447;SDS011;65284;51.040;13.722;2023-11-18T03:40:06;7.10;;;2.88;;
76447;SDS011;65284;51.040;13.722;2023-11-18T03:42:36;7.75;;;3.00;;
76447;SDS011;65284;51.040;13.722;2023-11-18T03:45:03;6.35;;;3.17;;
76447;SDS011;65284;51.040;13.722;2023-11-18T03:47:30;6.22;;;2.85;;
76447;SDS011;65284;51.040;13.722;2023-11-18T03:49:57;7.47;;;3.35;;
76447;SDS011;65284;51.040;13.722;2023-11-18T03:52:23;7.50;;;2.88;;
76447;SDS011;65284;51.040;13.722;2023-11-18T03:54:50;7.65;;;3.17;;
76447;SDS011;65284;51.040;13.722;2023-11-18T03:57:16;8.43;;;3.40;;
76447;SDS011;65284;51.040;13.722;2023-11-18T03:59:43;7.32;;;3.20;;
76447;SDS011;65284;51.040;13.722;2023-11-18T04:02:09;6.88;;;3.28;;
76447;SDS011;65284;51.040;13.722;2023-11-18T04:04:37;7.97;;;3.00;;
76447;SDS011;65284;51.040;13.722;2023-11-18T04:07:04;6.63;;;3.20;;
76447;SDS011;65284;51.040;13.722;2023-11-18T04:09:30;6.90;;;3.20;;
76447;SDS011;65284;51.040;13.722;2023-11-18T04:11:57;7.47;;;3.17;;
76447;SDS011;65284;51.040;13.722;2023-11-18T04:14:24;6.47;;;2.95;;
76447;SDS011;65284;51.040;13.722;2023-11-18T04:16:51;9.38;;;3.28;;
76447;SDS011;65284;51.040;13.722;2023-11-18T04:19:18;7.50;;;3.30;;
76447;SDS011;65284;51.040;13.722;2023-11-18T04:21:46;6.80;;;3.08;;
76447;SDS011;65284;51.040;13.722;2023-11-18T04:24:15;7.20;;;3.10;;
76447;SDS011;65284;51.040;13.722;2023-11-18T04:26:42;7.00;;;3.17;;
76447;SDS011;65284;51.040;13.722;2023-11-18T04:29:08;7.63;;;3.30;;
76447;SDS011;65284;51.040;13.722;2023-11-18T04:31:35;6.85;;;3.13;;
76447;SDS011;65284;51.040;13.722;2023-11-18T04:34:03;8.68;;;3.22;;
76447;SDS011;65284;51.040;13.722;2023-11-18T04:36:32;6.55;;;2.67;;
76447;SDS011;65284;51.040;13.722;2023-11-18T04:38:59;7.68;;;3.22;;
76447;SDS011;65284;51.040;13.722;2023-11-18T04:41:25;6.85;;;2.90;;
76447;SDS011;65284;51.040;13.722;2023-11-18T04:43:52;9.50;;;3.45;;
76447;SDS011;65284;51.040;13.722;2023-11-18T04:46:19;7.38;;;3.10;;
76447;SDS011;65284;51.040;13.722;2023-11-18T04:48:46;7.28;;;3.20;;
76447;SDS011;65284;51.040;13.722;2023-11-18T04:51:12;7.60;;;3.00;;
76447;SDS011;65284;51.040;13.722;2023-11-18T04:53:39;6.97;;;3.20;;
76447;SDS011;65284;51.040;13.722;2023-11-18T04:56:05;7.22;;;3.10;;
76447;SDS011;65284;51.040;13.722;2023-11-18T04:58:39;8.43;;;3.47;;
76447;SDS011;65284;51.040;13.722;2023-11-18T05:01:06;7.25;;;3.13;;
76447;SDS011;65284;51.040;13.722;2023-11-18T05:03:33;8.38;;;3.60;;
76447;SDS011;65284;51.040;13.722;2023-11-18T05:05:59;7.82;;;3.63;;
76447;SDS011;65284;51.040;13.722;2023-11-18T05:08:26;7.57;;;3.15;;
76447;SDS011;65284;51.040;13.722;2023-11-18T05:10:52;8.85;;;3.30;;
76447;SDS011;65284;51.040;13.722;2023-11-18T05:13:20;8.63;;;3.33;;
76447;SDS011;65284;51.040;13.722;2023-11-18T05:15:48;6.93;;;3.17;;
76447;SDS011;65284;51.040;13.722;2023-11-18T05:18:16;7.90;;;3.13;;
76447;SDS011;65284;51.040;13.722;2023-11-18T05:20:43;8.20;;;3.60;;
76447;SDS011;65284;51.040;13.722;2023-11-18T05:23:11;8.43;;;3.42;;
76447;SDS011;65284;51.040;13.722;2023-11-18T05:25:41;7.53;;;3.38;;
76447;SDS011;65284;51.040;13.722;2023-11-18T05:28:12;7.43;;;3.42;;
76447;SDS011;65284;51.040;13.722;2023-11-18T05:30:40;8.35;;;3.60;;
76447;SDS011;65284;51.040;13.722;2023-11-18T05:33:09;7.30;;;3.58;;
76447;SDS011;65284;51.040;13.722;2023-11-18T05:35:41;9.23;;;3.97;;
76447;SDS011;65284;51.040;13.722;2023-11-18T05:38:15;9.02;;;3.65;;
76447;SDS011;65284;51.040;13.722;2023-11-18T05:40:45;8.27;;;3.78;;
76447;SDS011;65284;51.040;13.722;2023-11-18T05:43:26;9.45;;;4.00;;
76447;SDS011;65284;51.040;13.722;2023-11-18T05:45:56;7.75;;;3.38;;
76447;SDS011;65284;51.040;13.722;2023-11-18T05:48:43;7.53;;;3.40;;
76447;SDS011;65284;51.040;13.722;2023-11-18T05:51:10;9.40;;;3.42;;
76447;SDS011;65284;51.040;13.722;2023-11-18T05:53:41;8.15;;;3.35;;
76447;SDS011;65284;51.040;13.722;2023-11-18T05:56:11;7.68;;;2.92;;
76447;SDS011;65284;51.040;13.722;2023-11-18T05:58:38;8.00;;;3.70;;
76447;SDS011;65284;51.040;13.722;2023-11-18T06:01:05;7.75;;;3.58;;
76447;SDS011;65284;51.040;13.722;2023-11-18T06:03:35;8.38;;;3.95;;
76447;SDS011;65284;51.040;13.722;2023-11-18T06:08:34;8.75;;;4.00;;
76447;SDS011;65284;51.040;13.722;2023-11-18T06:11:01;9.15;;;4.28;;
76447;SDS011;65284;51.040;13.722;2023-11-18T06:13:42;8.23;;;3.80;;
76447;SDS011;65284;51.040;13.722;2023-11-18T06:16:13;9.45;;;4.10;;
76447;SDS011;65284;51.040;13.722;2023-11-18T06:18:41;8.52;;;3.92;;
76447;SDS011;65284;51.040;13.722;2023-11-18T06:21:13;9.13;;;4.00;;
76447;SDS011;65284;51.040;13.722;2023-11-18T06:23:41;8.80;;;4.05;;
76447;SDS011;65284;51.040;13.722;2023-11-18T06:26:08;8.23;;;3.90;;
76447;SDS011;65284;51.040;13.722;2023-11-18T06:28:41;11.57;;;5.15;;
76447;SDS011;65284;51.040;13.722;2023-11-18T06:31:09;13.43;;;5.20;;
76447;SDS011;65284;51.040;13.722;2023-11-18T06:33:38;8.68;;;4.00;;
76447;SDS011;65284;51.040;13.722;2023-11-18T06:38:45;8.73;;;3.85;;
76447;SDS011;65284;51.040;13.722;2023-11-18T06:41:13;9.45;;;4.03;;
76447;SDS011;65284;51.040;13.722;2023-11-18T06:43:41;8.38;;;4.15;;
76447;SDS011;65284;51.040;13.722;2023-11-18T06:46:18;7.82;;;3.67;;
76447;SDS011;65284;51.040;13.722;2023-11-18T06:48:48;9.20;;;4.30;;
76447;SDS011;65284;51.040;13.722;2023-11-18T06:51:16;9.55;;;4.10;;
76447;SDS011;65284;51.040;13.722;2023-11-18T06:53:42;8.40;;;4.10;;
76447;SDS011;65284;51.040;13.722;2023-11-18T06:56:10;9.75;;;4.00;;
76447;SDS011;65284;51.040;13.722;2023-11-18T06:58:39;9.40;;;3.78;;
76447;SDS011;65284;51.040;13.722;2023-11-18T07:01:07;9.63;;;3.97;;
76447;SDS011;65284;51.040;13.722;2023-11-18T07:03:34;8.57;;;3.67;;
76447;SDS011;65284;51.040;13.722;2023-11-18T07:06:00;7.78;;;3.60;;
76447;SDS011;65284;51.040;13.722;2023-11-18T07:08:27;8.07;;;3.72;;
76447;SDS011;65284;51.040;13.722;2023-11-18T07:10:53;7.43;;;3.78;;
76447;SDS011;65284;51.040;13.722;2023-11-18T07:13:20;8.55;;;3.60;;
76447;SDS011;65284;51.040;13.722;2023-11-18T07:15:52;10.07;;;3.63;;
76447;SDS011;65284;51.040;13.722;2023-11-18T07:18:20;6.90;;;2.83;;
76447;SDS011;65284;51.040;13.722;2023-11-18T07:20:48;9.48;;;3.88;;
76447;SDS011;65284;51.040;13.722;2023-11-18T07:23:20;8.57;;;4.00;;
76447;SDS011;65284;51.040;13.722;2023-11-18T07:25:46;9.10;;;3.72;;
76447;SDS011;65284;51.040;13.722;2023-11-18T07:28:13;7.70;;;3.47;;
76447;SDS011;65284;51.040;13.722;2023-11-18T07:30:43;8.88;;;3.90;;
76447;SDS011;65284;51.040;13.722;2023-11-18T07:33:14;9.32;;;3.92;;
76447;SDS011;65284;51.040;13.722;2023-11-18T07:35:42;8.30;;;3.83;;
76447;SDS011;65284;51.040;13.722;2023-11-18T07:38:09;10.88;;;3.92;;
76447;SDS011;65284;51.040;13.722;2023-11-18T07:40:36;8.52;;;4.00;;
76447;SDS011;65284;51.040;13.722;2023-11-18T07:43:08;9.75;;;3.75;;
76447;SDS011;65284;51.040;13.722;2023-11-18T07:45:35;7.57;;;3.45;;
76447;SDS011;65284;51.040;13.722;2023-11-18T07:48:06;11.20;;;3.80;;
76447;SDS011;65284;51.040;13.722;2023-11-18T07:50:37;8.82;;;3.65;;
76447;SDS011;65284;51.040;13.722;2023-11-18T07:53:07;10.30;;;3.53;;
76447;SDS011;65284;51.040;13.722;2023-11-18T07:55:34;9.50;;;4.10;;
76447;SDS011;65284;51.040;13.722;2023-11-18T07:58:01;8.98;;;3.78;;
76447;SDS011;65284;51.040;13.722;2023-11-18T08:00:30;9.18;;;3.90;;
76447;SDS011;65284;51.040;13.722;2023-11-18T08:02:57;8.68;;;4.10;;
76447;SDS011;65284;51.040;13.722;2023-11-18T08:05:26;9.20;;;4.00;;
76447;SDS011;65284;51.040;13.722;2023-11-18T08:07:54;9.48;;;4.28;;
76447;SDS011;65284;51.040;13.722;2023-11-18T08:10:20;8.45;;;3.92;;
76447;SDS011;65284;51.040;13.722;2023-11-18T08:12:48;10.38;;;4.38;;
76447;SDS011;65284;51.040;13.722;2023-11-18T08:15:14;10.65;;;4.72;;
76447;SDS011;65284;51.040;13.722;2023-11-18T08:17:41;10.30;;;4.25;;
76447;SDS011;65284;51.040;13.722;2023-11-18T08:20:07;12.18;;;4.60;;
76447;SDS011;65284;51.040;13.722;2023-11-18T08:22:40;10.43;;;4.60;;
76447;SDS011;65284;51.040;13.722;2023-11-18T08:25:11;10.27;;;4.50;;
76447;SDS011;65284;51.040;13.722;2023-11-18T08:27:39;10.35;;;4.13;;
76447;SDS011;65284;51.040;13.722;2023-11-18T08:30:07;9.40;;;4.40;;
76447;SDS011;65284;51.040;13.722;2023-11-18T08:32:38;9.07;;;4.30;;
76447;SDS011;65284;51.040;13.722;2023-11-18T08:35:05;10.88;;;4.80;;
76447;SDS011;65284;51.040;13.722;2023-11-18T08:37:34;9.27;;;4.13;;
76447;SDS011;65284;51.040;13.722;2023-11-18T08:40:03;11.90;;;5.13;;
76447;SDS011;65284;51.040;13.722;2023-11-18T08:42:48;8.20;;;3.45;;
76447;SDS011;65284;51.040;13.722;2023-11-18T08:45:17;10.07;;;4.68;;
76447;SDS011;65284;51.040;13.722;2023-11-18T08:47:45;9.43;;;4.65;;
76447;SDS011;65284;51.040;13.722;2023-11-18T08:50:13;11.15;;;4.53;;
76447;SDS011;65284;51.040;13.722;2023-11-18T08:52:40;10.75;;;4.45;;
76447;SDS011;65284;51.040;13.722;2023-11-18T08:55:10;9.73;;;4.60;;
76447;SDS011;65284;51.040;13.722;2023-11-18T08:57:44;10.88;;;4.68;;
76447;SDS011;65284;51.040;13.722;2023-11-18T09:00:38;9.52;;;4.20;;
76447;SDS011;65284;51.040;13.722;2023-11-18T09:03:11;10.55;;;4.55;;
76447;SDS011;65284;51.040;13.722;2023-11-18T09:05:45;10.20;;;4.45;;
76447;SDS011;65284;51.040;13.722;2023-11-18T09:08:27;10.07;;;4.50;;
76447;SDS011;65284;51.040;13.722;2023-11-18T09:10:58;10.27;;;4.80;;
76447;SDS011;65284;51.040;13.722;2023-11-18T09:13:26;9.30;;;4.47;;
76447;SDS011;65284;51.040;13.722;2023-11-18T09:15:58;10.55;;;4.97;;
76447;SDS011;65284;51.040;13.722;2023-11-18T09:18:35;9.30;;;4.38;;
76447;SDS011;65284;51.040;13.722;2023-11-18T09:21:07;9.88;;;4.72;;
76447;SDS011;65284;51.040;13.722;2023-11-18T09:23:41;10.60;;;4.68;;
76447;SDS011;65284;51.040;13.722;2023-11-18T09:26:08;9.75;;;4.28;;
76447;SDS011;65284;51.040;13.722;2023-11-18T09:28:37;9.07;;;4.20;;
76447;SDS011;65284;51.040;13.722;2023-11-18T09:31:04;8.32;;;3.95;;
76447;SDS011;65284;51.040;13.722;2023-11-18T09:33:32;9.05;;;4.38;;
76447;SDS011;65284;51.040;13.722;2023-11-18T09:36:00;9.02;;;4.47;;
76447;SDS011;65284;51.040;13.722;2023-11-18T09:38:29;9.88;;;4.60;;
76447;SDS011;65284;51.040;13.722;2023-11-18T09:40:57;7.68;;;3.85;;
76447;SDS011;65284;51.040;13.722;2023-11-18T09:43:35;9.07;;;3.83;;
76447;SDS011;65284;51.040;13.722;2023-11-18T09:46:09;9.52;;;4.20;;
76447;SDS011;65284;51.040;13.722;2023-11-18T09:48:43;8.57;;;3.88;;
76447;SDS011;65284;51.040;13.722;2023-11-18T09:51:21;8.88;;;3.90;;
76447;SDS011;65284;51.040;13.722;2023-11-18T09:56:29;8.43;;;3.88;;
76447;SDS011;65284;51.040;13.722;2023-11-18T09:59:06;7.38;;;3.50;;
76447;SDS011;65284;51.040;13.722;2023-11-18T10:01:42;9.80;;;4.45;;
76447;SDS011;65284;51.040;13.722;2023-11-18T10:04:13;9.45;;;3.97;;
76447;SDS011;65284;51.040;13.722;2023-11-18T10:06:44;11.55;;;4.38;;
76447;SDS011;65284;51.040;13.722;2023-11-18T10:09:13;8.40;;;3.90;;
76447;SDS011;65284;51.040;13.722;2023-11-18T10:11:44;7.63;;;4.00;;
76447;SDS011;65284;51.040;13.722;2023-11-18T10:16:45;9.75;;;3.95;;
76447;SDS011;65284;51.040;13.722;2023-11-18T10:19:13;7.32;;;3.80;;
76447;SDS011;65284;51.040;13.722;2023-11-18T10:21:40;9.00;;;4.10;;
76447;SDS011;65284;51.040;13.722;2023-11-18T10:24:07;7.75;;;3.97;;
76447;SDS011;65284;51.040;13.722;2023-11-18T10:26:42;9.00;;;3.70;;
76447;SDS011;65284;51.040;13.722;2023-11-18T10:29:11;8.20;;;3.72;;
76447;SDS011;65284;51.040;13.722;2023-11-18T10:31:39;7.75;;;3.78;;
76447;SDS011;65284;51.040;13.722;2023-11-18T10:34:12;7.65;;;3.90;;
76447;SDS011;65284;51.040;13.722;2023-11-18T10:36:42;7.53;;;3.28;;
76447;SDS011;65284;51.040;13.722;2023-11-18T10:39:27;9.10;;;4.28;;
76447;SDS011;65284;51.040;13.722;2023-11-18T10:42:00;8.05;;;3.92;;
76447;SDS011;65284;51.040;13.722;2023-11-18T10:44:27;8.60;;;3.30;;
76447;SDS011;65284;51.040;13.722;2023-11-18T10:46:55;7.38;;;3.42;;
76447;SDS011;65284;51.040;13.722;2023-11-18T10:49:29;7.82;;;3.25;;
76447;SDS011;65284;51.040;13.722;2023-11-18T10:52:04;6.95;;;2.92;;
76447;SDS011;65284;51.040;13.722;2023-11-18T10:54:34;7.05;;;3.38;;
76447;SDS011;65284;51.040;13.722;2023-11-18T10:57:01;5.60;;;2.80;;
76447;SDS011;65284;51.040;13.722;2023-11-18T10:59:33;5.75;;;3.05;;
76447;SDS011;65284;51.040;13.722;2023-11-18T11:02:00;7.97;;;2.75;;
76447;SDS011;65284;51.040;13.722;2023-11-18T11:04:27;5.30;;;2.47;;
76447;SDS011;65284;51.040;13.722;2023-11-18T11:07:09;2.75;;;1.10;;
76447;SDS011;65284;51.040;13.722;2023-11-18T11:09:37;2.25;;;0.85;;
76447;SDS011;65284;51.040;13.722;2023-11-18T11:12:10;2.42;;;0.90;;
76447;SDS011;65284;51.040;13.722;2023-11-18T11:14:46;3.00;;;0.77;;
76447;SDS011;65284;51.040;13.722;2023-11-18T11:17:23;2.05;;;0.90;;
76447;SDS011;65284;51.040;13.722;2023-11-18T11:20:04;1.77;;;0.80;;
76447;SDS011;65284;51.040;13.722;2023-11-18T11:22:39;2.40;;;0.90;;
76447;SDS011;65284;51.040;13.722;2023-11-18T11:25:16;1.98;;;0.70;;
76447;SDS011;65284;51.040;13.722;2023-11-18T11:30:46;2.15;;;0.73;;
76447;SDS011;65284;51.040;13.722;2023-11-18T11:33:38;2.45;;;1.00;;
76447;SDS011;65284;51.040;13.722;2023-11-18T11:36:11;2.22;;;0.90;;
76447;SDS011;65284;51.040;13.722;2023-11-18T11:41:05;2.10;;;1.00;;
76447;SDS011;65284;51.040;13.722;2023-11-18T11:43:35;2.45;;;0.93;;
76447;SDS011;65284;51.040;13.722;2023-11-18T11:46:02;2.40;;;1.05;;
76447;SDS011;65284;51.040;13.722;2023-11-18T11:48:37;2.72;;;1.27;;
76447;SDS011;65284;51.040;13.722;2023-11-18T11:51:16;2.88;;;1.15;;
76447;SDS011;65284;51.040;13.722;2023-11-18T11:54:06;2.20;;;1.00;;
76447;SDS011;65284;51.040;13.722;2023-11-18T11:56:45;1.67;;;0.80;;
76447;SDS011;65284;51.040;13.722;2023-11-18T11:59:16;2.13;;;0.90;;
76447;SDS011;65284;51.040;13.722;2023-11-18T12:04:16;2.13;;;0.95;;
76447;SDS011;65284;51.040;13.722;2023-11-18T12:06:54;2.35;;;1.00;;
76447;SDS011;65284;51.040;13.722;2023-11-18T12:09:37;2.45;;;0.90;;
76447;SDS011;65284;51.040;13.722;2023-11-18T12:12:05;2.00;;;0.90;;
76447;SDS011;65284;51.040;13.722;2023-11-18T12:14:57;3.00;;;1.20;;
76447;SDS011;65284;51.040;13.722;2023-11-18T12:23:09;3.53;;;1.80;;
76447;SDS011;65284;51.040;13.722;2023-11-18T12:25:42;4.75;;;2.00;;
76447;SDS011;65284;51.040;13.722;2023-11-18T12:28:09;3.90;;;2.05;;
76447;SDS011;65284;51.040;13.722;2023-11-18T12:30:37;4.13;;;1.90;;
76447;SDS011;65284;51.040;13.722;2023-11-18T12:33:09;3.88;;;1.95;;
76447;SDS011;65284;51.040;13.722;2023-11-18T12:41:39;3.97;;;1.90;;
76447;SDS011;65284;51.040;13.722;2023-11-18T12:44:24;4.05;;;1.80;;
76447;SDS011;65284;51.040;13.722;2023-11-18T12:46:59;4.13;;;1.80;;
76447;SDS011;65284;51.040;13.722;2023-11-18T12:49:41;4.50;;;2.20;;
76447;SDS011;65284;51.040;13.722;2023-11-18T12:52:08;4.20;;;1.80;;
76447;SDS011;65284;51.040;13.722;2023-11-18T12:54:36;3.72;;;1.88;;
76447;SDS011;65284;51.040;13.722;2023-11-18T12:57:04;4.15;;;2.00;;
76447;SDS011;65284;51.040;13.722;2023-11-18T12:59:33;3.88;;;2.03;;
76447;SDS011;65284;51.040;13.722;2023-11-18T13:02:00;4.22;;;2.10;;
76447;SDS011;65284;51.040;13.722;2023-11-18T13:04:30;5.55;;;2.03;;
76447;SDS011;65284;51.040;13.722;2023-11-18T13:06:57;4.65;;;2.17;;
76447;SDS011;65284;51.040;13.722;2023-11-18T13:09:26;4.22;;;2.10;;
76447;SDS011;65284;51.040;13.722;2023-11-18T13:11:55;4.50;;;2.25;;
76447;SDS011;65284;51.040;13.722;2023-11-18T13:14:25;4.22;;;2.20;;
76447;SDS011;65284;51.040;13.722;2023-11-18T13:16:53;4.25;;;2.00;;
76447;SDS011;65284;51.040;13.722;2023-11-18T13:19:23;4.93;;;2.35;;
76447;SDS011;65284;51.040;13.722;2023-11-18T13:21:57;4.70;;;2.30;;
76447;SDS011;65284;51.040;13.722;2023-11-18T13:24:26;4.90;;;2.35;;
76447;SDS011;65284;51.040;13.722;2023-11-18T13:26:56;5.07;;;2.58;;
76447;SDS011;65284;51.040;13.722;2023-11-18T13:29:23;7.28;;;3.20;;
76447;SDS011;65284;51.040;13.722;2023-11-18T13:31:50;4.35;;;2.22;;
76447;SDS011;65284;51.040;13.722;2023-11-18T13:34:18;5.63;;;2.80;;
76447;SDS011;65284;51.040;13.722;2023-11-18T13:36:46;5.03;;;2.60;;
76447;SDS011;65284;51.040;13.722;2023-11-18T13:39:19;5.45;;;2.50;;
76447;SDS011;65284;51.040;13.722;2023-11-18T13:41:50;5.43;;;2.33;;
76447;SDS011;65284;51.040;13.722;2023-11-18T13:44:35;4.75;;;2.42;;
76447;SDS011;65284;51.040;13.722;2023-11-18T13:47:04;4.80;;;2.70;;
76447;SDS011;65284;51.040;13.722;2023-11-18T13:49:32;7.63;;;3.40;;
76447;SDS011;65284;51.040;13.722;2023-11-18T13:52:00;6.72;;;3.15;;
76447;SDS011;65284;51.040;13.722;2023-11-18T13:54:28;5.75;;;3.13;;
76447;SDS011;65284;51.040;13.722;2023-11-18T13:57:00;6.75;;;3.20;;
76447;SDS011;65284;51.040;13.722;2023-11-18T13:59:29;6.70;;;3.10;;
76447;SDS011;65284;51.040;13.722;2023-11-18T14:01:56;6.40;;;3.30;;
76447;SDS011;65284;51.040;13.722;2023-11-18T14:04:28;7.00;;;4.10;;
76447;SDS011;65284;51.040;13.722;2023-11-18T14:06:58;6.22;;;3.60;;
76447;SDS011;65284;51.040;13.722;2023-11-18T14:09:32;8.38;;;4.13;;
76447;SDS011;65284;51.040;13.722;2023-11-18T14:12:06;8.20;;;4.30;;
76447;SDS011;65284;51.040;13.722;2023-11-18T14:14:33;8.45;;;4.15;;
76447;SDS011;65284;51.040;13.722;2023-11-18T14:17:00;9.15;;;4.07;;
76447;SDS011;65284;51.040;13.722;2023-11-18T14:19:27;7.05;;;3.47;;
76447;SDS011;65284;51.040;13.722;2023-11-18T14:21:55;6.75;;;3.58;;
76447;SDS011;65284;51.040;13.722;2023-11-18T14:24:22;8.07;;;3.85;;
76447;SDS011;65284;51.040;13.722;2023-11-18T14:26:54;7.70;;;3.83;;
76447;SDS011;65284;51.040;13.722;2023-11-18T14:29:21;9.02;;;4.22;;
76447;SDS011;65284;51.040;13.722;2023-11-18T14:31:47;7.40;;;3.90;;
76447;SDS011;65284;51.040;13.722;2023-11-18T14:34:14;7.20;;;3.95;;
76447;SDS011;65284;51.040;13.722;2023-11-18T14:36:41;8.07;;;4.20;;
76447;SDS011;65284;51.040;13.722;2023-11-18T14:39:11;7.35;;;4.00;;
76447;SDS011;65284;51.040;13.722;2023-11-18T14:41:40;7.13;;;3.92;;
76447;SDS011;65284;51.040;13.722;2023-11-18T14:44:06;7.32;;;4.00;;
76447;SDS011;65284;51.040;13.722;2023-11-18T14:46:35;7.40;;;4.10;;
76447;SDS011;65284;51.040;13.722;2023-11-18T14:49:07;8.02;;;4.38;;
76447;SDS011;65284;51.040;13.722;2023-11-18T14:51:33;9.02;;;4.53;;
76447;SDS011;65284;51.040;13.722;2023-11-18T14:54:00;8.68;;;4.55;;
76447;SDS011;65284;51.040;13.722;2023-11-18T14:56:26;7.55;;;4.32;;
76447;SDS011;65284;51.040;13.722;2023-11-18T14:58:53;7.03;;;3.95;;
76447;SDS011;65284;51.040;13.722;2023-11-18T15:01:19;8.38;;;4.38;;
76447;SDS011;65284;51.040;13.722;2023-11-18T15:03:46;10.20;;;5.50;;
76447;SDS011;65284;51.040;13.722;2023-11-18T15:06:13;11.88;;;6.50;;
76447;SDS011;65284;51.040;13.722;2023-11-18T15:08:39;10.00;;;5.75;;
76447;SDS011;65284;51.040;13.722;2023-11-18T15:11:11;8.77;;;5.15;;
76447;SDS011;65284;51.040;13.722;2023-11-18T15:13:41;10.02;;;5.22;;
76447;SDS011;65284;51.040;13.722;2023-11-18T15:16:08;10.73;;;5.60;;
76447;SDS011;65284;51.040;13.722;2023-11-18T15:18:34;10.63;;;5.65;;
76447;SDS011;65284;51.040;13.722;2023-11-18T15:21:01;16.13;;;7.50;;
76447;SDS011;65284;51.040;13.722;2023-11-18T15:23:28;13.13;;;6.95;;